D/T METAR WX W/DIR W/SPE G/SPE TEMP DEWP
31/05/20 06:20 EGPF 310520Z AUTO 08008KT 9999 NCD 11/08 Q1026 E (80°) 9.2mph 11°C 8°C
31/05/20 05:50 EGPF 310450Z AUTO 08008KT 9999 NCD 10/08 Q1026 E (80°) 9.2mph 10°C 8°C
31/05/20 05:20 EGPF 310420Z AUTO 08007KT 9999 NCD 10/07 Q1026 E (80°) 8.1mph 10°C 7°C
31/05/20 04:50 EGPF 310350Z AUTO 08008KT 9999 NCD 10/07 Q1026 E (80°) 9.2mph 10°C 7°C
31/05/20 03:50 EGPF 310250Z AUTO 05005KT 9999 NCD 09/06 Q1026 NE (50°) 5.8mph 9°C 6°C
31/05/20 03:20 EGPF 310220Z AUTO 05007KT 9999 NCD 10/07 Q1026 NE (50°) 8.1mph 10°C 7°C
31/05/20 02:50 EGPF 310150Z AUTO 06008KT 9999 NCD 10/07 Q1026 ENE (60°) 9.2mph 10°C 7°C
31/05/20 02:20 EGPF 310120Z AUTO 07009KT 9999 NCD 11/07 Q1026 ENE (70°) 10.4mph 11°C 7°C
31/05/20 01:50 EGPF 310050Z AUTO 07010KT 9999 NCD 11/08 Q1026 ENE (70°) 11.5mph 11°C 8°C
31/05/20 01:20 EGPF 310020Z AUTO 07010KT 9999 NCD 11/08 Q1025 ENE (70°) 11.5mph 11°C 8°C
31/05/20 00:50 EGPF 302350Z AUTO 07009KT 9999 NCD 11/08 Q1025 ENE (70°) 10.4mph 11°C 8°C
31/05/20 00:20 EGPF 302320Z AUTO 07010KT 9999 NCD 12/08 Q1025 ENE (70°) 11.5mph 12°C 8°C
30/05/20 23:50 EGPF 302250Z AUTO 07011KT 9999 NCD 12/08 Q1025 ENE (70°) 12.7mph 12°C 8°C
30/05/20 23:20 EGPF 302220Z AUTO 07013KT 9999 NCD 12/08 Q1025 ENE (70°) 15.0mph 12°C 8°C
30/05/20 22:50 EGPF 302150Z AUTO 07012KT 9999 NCD 13/08 Q1025 ENE (70°) 13.8mph 13°C 8°C
30/05/20 22:20 EGPF 302120Z AUTO 07011KT 9999 NCD 13/08 Q1025 ENE (70°) 12.7mph 13°C 8°C
30/05/20 21:50 EGPF 302050Z AUTO 06014KT 9999 NCD 14/08 Q1024 ENE (60°) 16.1mph 14°C 8°C
30/05/20 21:20 EGPF 302020Z AUTO 07014KT 9999 NCD 16/08 Q1024 ENE (70°) 16.1mph 16°C 8°C
30/05/20 20:50 EGPF 301950Z AUTO 07016KT 9999 NCD 17/08 Q1023 ENE (70°) 18.4mph 17°C 8°C
30/05/20 20:20 EGPF 301920Z AUTO 06017KT 9999 NCD 18/08 Q1023 ENE (60°) 19.6mph 18°C 8°C
30/05/20 19:50 EGPF 301850Z AUTO 06018KT 9999 NCD 19/08 Q1023 ENE (60°) 20.7mph 19°C 8°C
30/05/20 19:20 EGPF 301820Z AUTO 06016KT 9999 NCD 19/09 Q1023 ENE (60°) 18.4mph 19°C 9°C
30/05/20 18:50 EGPF 301750Z AUTO 06017KT 9999 NCD 20/09 Q1022 ENE (60°) 19.6mph 20°C 9°C
30/05/20 18:20 EGPF 301720Z AUTO 05017KT 9999 NCD 21/09 Q1022 NE (50°) 19.6mph 21°C 9°C
30/05/20 17:50 EGPF 301650Z AUTO 05018KT 9999 NCD 22/09 Q1022 NE (50°) 20.7mph 22°C 9°C
30/05/20 17:20 EGPF 301620Z AUTO 06016KT 9999 NCD 22/09 Q1023 ENE (60°) 18.4mph 22°C 9°C
30/05/20 16:50 EGPF 301550Z AUTO 06016KT 9999 NCD 22/09 Q1023 ENE (60°) 18.4mph 22°C 9°C
30/05/20 16:20 EGPF 301520Z AUTO 05015KT 9999 NCD 23/09 Q1023 NE (50°) 17.3mph 23°C 9°C
30/05/20 15:50 EGPF 301450Z AUTO 09010KT 040V160 9999 NCD 24/09 Q1023 E (90°) 11.5mph 24°C 9°C
30/05/20 15:20 EGPF 301420Z AUTO 06014KT 030V090 9999 NCD 23/10 Q1023 ENE (60°) 16.1mph 23°C 10°C
30/05/20 14:50 EGPF 301350Z AUTO 05014KT 9999 NCD 23/10 Q1023 NE (50°) 16.1mph 23°C 10°C
30/05/20 14:20 EGPF 301320Z AUTO 07012KT 9999 NCD 23/11 Q1023 ENE (70°) 13.8mph 23°C 11°C
30/05/20 13:50 EGPF 301250Z AUTO 07013KT 9999 NCD 22/11 Q1023 ENE (70°) 15.0mph 22°C 11°C
30/05/20 13:20 EGPF 301220Z AUTO 06010KT 030V110 9999 BKN046 22/11 Q1024 ENE (60°) 11.5mph 22°C 11°C
30/05/20 12:50 EGPF 301150Z AUTO 09011KT 9999 BKN043 22/12 Q1024 E (90°) 12.7mph 22°C 12°C
30/05/20 11:50 EGPF 301050Z AUTO 10007KT 060V160 9999 NCD 22/11 Q1024 E (100°) 8.1mph 22°C 11°C
30/05/20 11:20 EGPF 301020Z AUTO 08011KT 9999 NCD 22/10 Q1024 E (80°) 12.7mph 22°C 10°C
30/05/20 10:50 EGPF 300950Z AUTO 09007KT 060V120 9999 NCD 21/11 Q1025 E (90°) 8.1mph 21°C 11°C
30/05/20 10:20 EGPF 300920Z AUTO 08005KT 030V130 9999 NCD 21/11 Q1025 E (80°) 5.8mph 21°C 11°C
30/05/20 09:50 EGPF 300850Z AUTO 10005KT 040V140 9999 NCD 20/10 Q1025 E (100°) 5.8mph 20°C 10°C
30/05/20 09:20 EGPF 300820Z AUTO 04005KT 350V070 9999 NCD 19/11 Q1025 NE (40°) 5.8mph 19°C 11°C
30/05/20 08:50 EGPF 300750Z AUTO 06005KT 020V090 9999 NCD 18/11 Q1025 ENE (60°) 5.8mph 18°C 11°C
30/05/20 08:20 EGPF 300720Z AUTO VRB02KT 9999 NCD 17/11 Q1025 N (0°) 2.3mph 17°C 11°C
30/05/20 07:50 EGPF 300650Z AUTO VRB01KT 9999 NCD 16/11 Q1025 N (0°) 1.2mph 16°C 11°C
30/05/20 07:20 EGPF 300620Z AUTO 20001KT 9999 NCD 14/10 Q1025 SSW (200°) 1.2mph 14°C 10°C
30/05/20 06:50 EGPF 300550Z AUTO VRB02KT 9999 NCD 12/10 Q1025 N (0°) 2.3mph 12°C 10°C
30/05/20 06:20 EGPF 300520Z AUTO VRB01KT 9999 NCD 10/09 Q1025 N (0°) 1.2mph 10°C 9°C
30/05/20 05:50 EGPF 300450Z AUTO 25003KT 9999 NCD 09/07 Q1025 WSW (250°) 3.5mph 9°C 7°C
30/05/20 05:20 EGPF 300420Z AUTO 24003KT 9999 NCD 08/07 Q1025 WSW (240°) 3.5mph 8°C 7°C
30/05/20 04:50 EGPF 300350Z AUTO 23003KT 9999 NCD 07/06 Q1025 SW (230°) 3.5mph 7°C 6°C
30/05/20 04:20 EGPF 300320Z AUTO 25003KT 9999 NCD 09/07 Q1025 WSW (250°) 3.5mph 9°C 7°C
30/05/20 03:50 EGPF 300250Z AUTO VRB01KT 9999 NCD 08/07 Q1025 N (0°) 1.2mph 8°C 7°C
30/05/20 03:20 EGPF 300220Z AUTO VRB04KT 9999 NCD 08/07 Q1025 N (0°) 4.6mph 8°C 7°C
30/05/20 02:50 EGPF 300150Z AUTO 26002KT 9999 NCD 08/07 Q1025 W (260°) 2.3mph 8°C 7°C
30/05/20 02:20 EGPF 300120Z AUTO VRB01KT 9999 NCD 10/09 Q1025 N (0°) 1.2mph 10°C 9°C
30/05/20 01:50 EGPF 300050Z AUTO VRB02KT 9999 NCD 11/09 Q1025 N (0°) 2.3mph 11°C 9°C
30/05/20 01:20 EGPF 300020Z AUTO VRB01KT 9999 NCD 10/09 Q1025 N (0°) 1.2mph 10°C 9°C
30/05/20 00:50 EGPF 292350Z AUTO 22002KT 9999 NCD 11/09 Q1025 SW (220°) 2.3mph 11°C 9°C
30/05/20 00:20 EGPF 292320Z AUTO 07001KT 9999 NCD 12/09 Q1025 ENE (70°) 1.2mph 12°C 9°C
29/05/20 23:50 EGPF 292250Z AUTO 25001KT 9999 NCD 13/10 Q1025 WSW (250°) 1.2mph 13°C 10°C
29/05/20 23:20 EGPF 292220Z AUTO 25002KT 9999 NCD 14/08 Q1025 WSW (250°) 2.3mph 14°C 8°C
29/05/20 22:50 EGPF 292150Z AUTO 26002KT 9999 NCD 15/07 Q1025 W (260°) 2.3mph 15°C 7°C
29/05/20 22:20 EGPF 292120Z AUTO 25004KT 9999 NCD 16/05 Q1025 WSW (250°) 4.6mph 16°C 5°C
29/05/20 21:50 EGPF 292050Z AUTO 27005KT 9999 NCD 17/06 Q1024 W (270°) 5.8mph 17°C 6°C
29/05/20 21:20 EGPF 292020Z AUTO 27006KT 9999 NCD 18/07 Q1024 W (270°) 6.9mph 18°C 7°C
29/05/20 20:50 EGPF 291950Z AUTO 28005KT 9999 NCD 19/08 Q1024 W (280°) 5.8mph 19°C 8°C
29/05/20 20:20 EGPF 291920Z AUTO 27006KT 9999 NCD 20/08 Q1024 W (270°) 6.9mph 20°C 8°C
29/05/20 19:50 EGPF 291850Z AUTO 28006KT 9999 NCD 20/09 Q1024 W (280°) 6.9mph 20°C 9°C
29/05/20 19:20 EGPF 291820Z AUTO 26007KT 9999 NCD 22/10 Q1024 W (260°) 8.1mph 22°C 10°C
29/05/20 18:20 EGPF 291720Z AUTO 25009KT 9999 NCD 23/10 Q1024 WSW (250°) 10.4mph 23°C 10°C
29/05/20 17:50 EGPF 291650Z AUTO 21012KT 9999 NCD 25/10 Q1024 SSW (210°) 13.8mph 25°C 10°C
29/05/20 16:50 EGPF 291550Z AUTO 18009KT 150V250 9999 NCD 25/10 Q1024 S (180°) 10.4mph 25°C 10°C
29/05/20 16:20 EGPF 291520Z AUTO 20012KT 9999 NCD 25/10 Q1025 SSW (200°) 13.8mph 25°C 10°C
29/05/20 15:50 EGPF 291450Z AUTO 19010KT 160V230 9999 NCD 25/10 Q1025 S (190°) 11.5mph 25°C 10°C
29/05/20 15:20 EGPF 291420Z AUTO 19010KT 130V230 9999 NCD 25/10 Q1025 S (190°) 11.5mph 25°C 10°C
29/05/20 14:50 EGPF 291350Z AUTO 20011KT 160V230 9999 NCD 25/11 Q1025 SSW (200°) 12.7mph 25°C 11°C
29/05/20 13:50 EGPF 291250Z AUTO 18009KT 140V220 9999 NCD 25/11 Q1026 S (180°) 10.4mph 25°C 11°C
29/05/20 13:20 EGPF 291220Z AUTO 18011KT 9999 NCD 24/10 Q1026 S (180°) 12.7mph 24°C 10°C
29/05/20 12:50 EGPF 291150Z AUTO 19010KT 140V210 9999 NCD 25/11 Q1026 S (190°) 11.5mph 25°C 11°C
29/05/20 12:20 EGPF 291120Z AUTO 19011KT 9999 NCD 24/11 Q1026 S (190°) 12.7mph 24°C 11°C
29/05/20 11:50 EGPF 291050Z AUTO 20007KT 160V230 9999 NCD 24/11 Q1027 SSW (200°) 8.1mph 24°C 11°C
29/05/20 11:20 EGPF 291020Z AUTO VRB03KT 9999 NCD 22/12 Q1027 N (0°) 3.5mph 22°C 12°C
29/05/20 10:50 EGPF 290950Z AUTO VRB03KT 9999 NCD 22/12 Q1027 N (0°) 3.5mph 22°C 12°C
29/05/20 10:20 EGPF 290920Z AUTO VRB03KT 9999 NCD 21/11 Q1028 N (0°) 3.5mph 21°C 11°C
29/05/20 09:50 EGPF 290850Z AUTO VRB02KT 9999 NCD 21/11 Q1028 N (0°) 2.3mph 21°C 11°C
29/05/20 09:20 EGPF 290820Z AUTO VRB02KT 9999 NCD 20/11 Q1028 N (0°) 2.3mph 20°C 11°C
29/05/20 08:50 EGPF 290750Z AUTO VRB02KT 9999 NCD 18/11 Q1028 N (0°) 2.3mph 18°C 11°C
29/05/20 08:20 EGPF 290720Z AUTO VRB03KT 9999 NCD 17/11 Q1028 N (0°) 3.5mph 17°C 11°C
29/05/20 07:50 EGPF 290650Z AUTO VRB02KT 9999 NCD 16/11 Q1028 N (0°) 2.3mph 16°C 11°C
29/05/20 07:20 EGPF 290620Z AUTO VRB01KT 9999 NCD 14/11 Q1028 N (0°) 1.2mph 14°C 11°C
29/05/20 06:50 EGPF 290550Z AUTO 23001KT 9999 NCD 12/11 Q1028 SW (230°) 1.2mph 12°C 11°C
29/05/20 06:20 EGPF 290520Z AUTO 26002KT 9999 NCD 11/10 Q1028 W (260°) 2.3mph 11°C 10°C
29/05/20 05:50 EGPF 290450Z AUTO VRB01KT 9999 NCD 09/09 Q1028 N (0°) 1.2mph 9°C 9°C
29/05/20 05:20 EGPF 290420Z AUTO 26002KT 9999 NCD 09/08 Q1028 W (260°) 2.3mph 9°C 8°C
29/05/20 04:50 EGPF 290350Z AUTO VRB02KT 8000 NCD 09/09 Q1028 N (0°) 2.3mph 9°C 9°C
29/05/20 04:20 EGPF 290320Z 23002KT 9999 MIFG NSC 10/09 Q1029 MIFG SW (230°) 2.3mph 10°C 9°C